Main page
METAR-TAF:

METAR-TAF

Airports :

Belgrade Nikola Tesla Airport

Belgrade, Serbia

latitude: 44-49N, longitude: 020-17E, elevation: 96 m

Current weather observation

The report was made 19 minutes ago, at 17:30 UTC
Wind 5 kt from the West/Northwest
Temperature 6°C
Humidity 70%
Pressure 1027 hPa
Visibility 10 km or more
Few clouds at a height of 4000 ft

METAR: LYBE 151730Z 30005KT 9999 FEW040 06/01 Q1027 NOSIG

Time: 18:49 (17:49 UTC)

Forecast

The report was made 49 minutes ago, at 17:00 UTC
Forecast valid from 15 at 18 UTC to 16 at 18 UTC
Wind 5 kt from the Northwest
Visibility 10 km or more
no clouds below 1500 m and no cumulonimbus
Temporary
from 16 at 04 UTC to 16 at 07 UTC
Visibility: 2000 m
mist

TAF: LYBE 151700Z 1518/1618 32005KT CAVOK TX11/1612Z TN02/1605Z TEMPO 1604/1607 2000 BR

Weather observations and forecasts of more than 4000 airports (METAR and TAF reports).

The available stations are represented by yellow and red dots on the map.

Hover mouse over dot to see the name of the station.

Then click to see weather observations and forecasts.

To change the map : click on the green buttons with a black cross to zoom in, on the green button with a dash to zoom out, or on the green arrows for adjacent maps.


METAR-TAF: